Time;durP1;ratioP1;P1;durP2;ratioP2;P2;SDS_P1;SDS_P2;PMS_P1;PMS_P2;Temp;Humidity;BMP_temperature;BMP_pressure;BME280_temperature;BME280_humidity;BME280_pressure;Samples;Min_cycle;Max_cycle;Signal;HPM_P1;HPM_P2
2024/03/28 00:01:12;;;;;;;50.63;18.35;;;;;;;;;;5042332;28;20495;-66
2024/03/28 00:03:57;;;;;;;48.67;19.38;;;;;;;;;;5039479;28;20040;-65
2024/03/28 00:06:43;;;;;;;48.85;18.23;;;;;;;;;;5033009;28;20029;-65
2024/03/28 00:09:28;;;;;;;48.15;18.98;;;;;;;;;;5032929;28;20510;-65
2024/03/28 00:12:14;;;;;;;48.13;19.88;;;;;;;;;;5052440;28;20021;-66
2024/03/28 00:15:00;;;;;;;45.30;18.75;;;;;;;;;;5051768;28;20498;-65
2024/03/28 00:17:45;;;;;;;49.88;20.02;;;;;;;;;;5051824;28;20074;-66
2024/03/28 00:20:31;;;;;;;50.42;21.90;;;;;;;;;;5052943;28;20441;-66
2024/03/28 00:23:17;;;;;;;48.03;19.42;;;;;;;;;;5051619;28;20505;-66
2024/03/28 00:26:02;;;;;;;43.40;18.52;;;;;;;;;;5051733;28;20125;-65
2024/03/28 00:28:48;;;;;;;45.25;19.00;;;;;;;;;;5052383;28;20036;-66
2024/03/28 00:31:34;;;;;;;52.70;19.35;;;;;;;;;;5052880;28;20036;-65
2024/03/28 00:34:19;;;;;;;45.67;19.58;;;;;;;;;;5050684;28;20021;-65
2024/03/28 00:37:05;;;;;;;44.53;17.98;;;;;;;;;;5052512;28;20087;-65
2024/03/28 00:39:51;;;;;;;45.92;18.02;;;;;;;;;;5052571;28;20502;-66
2024/03/28 00:42:36;;;;;;;39.03;16.15;;;;;;;;;;5051743;28;20043;-66
2024/03/28 00:45:22;;;;;;;43.00;18.67;;;;;;;;;;5051826;28;20021;-66
2024/03/28 00:48:08;;;;;;;43.13;17.13;;;;;;;;;;5052614;28;20485;-66
2024/03/28 00:50:58;;;;;;;46.05;18.05;;;;;;;;;;5050744;28;20032;-65
2024/03/28 00:53:44;;;;;;;;;;;;;;;;;;5051983;28;20040;-65
2024/03/28 00:56:30;;;;;;;33.30;15.60;;;;;;;;;;5051463;28;19955;-66
2024/03/28 00:59:15;;;;;;;39.13;15.65;;;;;;;;;;5052293;28;20023;-66
2024/03/28 01:02:01;;;;;;;40.83;17.00;;;;;;;;;;5051801;28;20025;-66
2024/03/28 01:04:49;;;;;;;31.20;14.63;;;;;;;;;;5052264;28;20386;-65
2024/03/28 01:07:35;;;;;;;35.25;13.95;;;;;;;;;;5036694;28;20059;-66
2024/03/28 01:10:21;;;;;;;36.13;16.20;;;;;;;;;;5050572;28;20021;-65
2024/03/28 01:13:06;;;;;;;39.83;16.63;;;;;;;;;;5052464;28;20025;-66
2024/03/28 01:15:52;;;;;;;42.00;18.48;;;;;;;;;;5052482;28;20470;-66
2024/03/28 01:18:37;;;;;;;41.40;18.63;;;;;;;;;;5052025;28;20083;-66
2024/03/28 01:21:23;;;;;;;40.95;16.00;;;;;;;;;;5035709;28;20053;-66
2024/03/28 01:24:09;;;;;;;51.80;20.48;;;;;;;;;;5051598;28;20021;-66
2024/03/28 01:26:55;;;;;;;49.38;18.85;;;;;;;;;;5052064;28;20032;-65
2024/03/28 01:29:40;;;;;;;45.60;18.90;;;;;;;;;;5051325;28;20021;-66
2024/03/28 01:32:26;;;;;;;51.88;20.98;;;;;;;;;;5055145;28;20025;-65
2024/03/28 01:35:11;;;;;;;47.45;21.02;;;;;;;;;;5055271;28;20029;-66
2024/03/28 01:37:57;;;;;;;50.83;20.20;;;;;;;;;;5055784;28;20028;-66
2024/03/28 01:40:43;;;;;;;46.10;19.20;;;;;;;;;;5054122;28;20059;-65
2024/03/28 01:43:28;;;;;;;51.85;19.50;;;;;;;;;;5047558;28;20096;-65
2024/03/28 01:46:16;;;;;;;51.50;19.83;;;;;;;;;;5038235;28;20512;-65
2024/03/28 01:49:02;;;;;;;60.42;23.02;;;;;;;;;;5054395;28;20017;-65
2024/03/28 01:51:48;;;;;;;55.60;23.77;;;;;;;;;;5051855;28;20528;-65
2024/03/28 01:54:35;;;;;;;50.40;19.70;;;;;;;;;;5038821;28;20021;-66
2024/03/28 01:57:21;;;;;;;59.58;23.38;;;;;;;;;;5033452;28;20053;-66
2024/03/28 02:00:08;;;;;;;50.22;20.83;;;;;;;;;;5033914;28;20029;-65
2024/03/28 02:02:57;;;;;;;54.28;19.52;;;;;;;;;;5034396;28;20029;-66
2024/03/28 02:05:43;;;;;;;48.47;18.77;;;;;;;;;;5033897;28;20121;-66
2024/03/28 02:08:28;;;;;;;48.60;19.67;;;;;;;;;;5033637;28;20026;-66
2024/03/28 02:11:14;;;;;;;56.05;19.98;;;;;;;;;;5022407;28;20021;-65
2024/03/28 02:14:03;;;;;;;58.17;21.52;;;;;;;;;;5045345;28;20036;-65
2024/03/28 02:16:52;;;;;;;55.30;21.20;;;;;;;;;;5045387;28;20508;-65
2024/03/28 02:19:37;;;;;;;57.40;22.45;;;;;;;;;;5049450;28;20027;-65
2024/03/28 02:22:23;;;;;;;52.38;21.20;;;;;;;;;;5030164;28;20037;-66
2024/03/28 02:25:09;;;;;;;55.55;22.50;;;;;;;;;;5033036;28;20025;-65
2024/03/28 02:27:55;;;;;;;62.70;22.23;;;;;;;;;;5046377;28;20108;-65
2024/03/28 02:30:41;;;;;;;57.35;22.33;;;;;;;;;;5034446;28;20021;-65
2024/03/28 02:33:27;;;;;;;65.18;24.23;;;;;;;;;;5037702;28;20067;-65
2024/03/28 02:36:12;;;;;;;53.60;22.30;;;;;;;;;;5038143;28;20021;-65
2024/03/28 02:38:58;;;;;;;61.97;23.15;;;;;;;;;;5052532;28;20498;-66
2024/03/28 02:41:44;;;;;;;64.47;24.80;;;;;;;;;;5054145;28;20397;-66
2024/03/28 02:44:29;;;;;;;58.72;22.98;;;;;;;;;;5052179;28;20478;-65
2024/03/28 02:47:15;;;;;;;69.78;23.92;;;;;;;;;;5054345;28;20430;-65
2024/03/28 02:50:00;;;;;;;60.70;23.10;;;;;;;;;;5054610;28;20048;-66
2024/03/28 02:52:46;;;;;;;59.40;22.48;;;;;;;;;;5054686;28;20060;-66
2024/03/28 02:55:32;;;;;;;58.47;22.90;;;;;;;;;;5053330;28;20033;-66
2024/03/28 02:58:17;;;;;;;67.28;26.73;;;;;;;;;;5054440;28;20051;-66
2024/03/28 03:01:03;;;;;;;58.53;22.77;;;;;;;;;;5054219;28;20021;-67
2024/03/28 03:03:49;;;;;;;57.00;23.05;;;;;;;;;;5053039;28;20028;-66
2024/03/28 03:06:34;;;;;;;62.45;23.23;;;;;;;;;;5053978;28;20032;-66
2024/03/28 03:09:20;;;;;;;62.10;24.02;;;;;;;;;;5053291;28;20057;-66
2024/03/28 03:12:06;;;;;;;61.65;23.92;;;;;;;;;;5053938;28;20394;-66
2024/03/28 03:14:52;;;;;;;60.72;23.30;;;;;;;;;;5053296;28;20497;-66
2024/03/28 03:17:38;;;;;;;63.00;25.20;;;;;;;;;;5054105;28;20418;-66
2024/03/28 03:20:24;;;;;;;63.83;24.27;;;;;;;;;;5053981;28;20025;-66
2024/03/28 03:23:10;;;;;;;59.47;24.02;;;;;;;;;;5053306;28;20025;-66
2024/03/28 03:26:11;;;;;;;56.17;23.50;;;;;;;;;;5052913;28;20028;-66
2024/03/28 03:35:08;;;;;;;59.50;23.80;;;;;;;;;;5052367;28;20025;-65
2024/03/28 03:37:53;;;;;;;60.88;23.70;;;;;;;;;;5051582;28;20024;-66
2024/03/28 03:40:39;;;;;;;62.30;23.85;;;;;;;;;;5053417;28;20486;-66
2024/03/28 03:43:25;;;;;;;63.17;25.08;;;;;;;;;;5052653;28;20559;-66
2024/03/28 03:46:10;;;;;;;65.60;23.33;;;;;;;;;;5053190;28;20082;-66
2024/03/28 03:48:56;;;;;;;61.22;22.88;;;;;;;;;;5053289;28;20025;-66
2024/03/28 03:51:41;;;;;;;59.03;24.52;;;;;;;;;;5052458;28;20025;-65
2024/03/28 03:54:27;;;;;;;63.13;23.83;;;;;;;;;;5052086;28;20029;-65
2024/03/28 03:57:13;;;;;;;55.95;22.65;;;;;;;;;;5053121;28;20021;-66
2024/03/28 03:59:58;;;;;;;64.90;24.92;;;;;;;;;;5052292;28;20021;-66
2024/03/28 04:02:44;;;;;;;57.05;23.17;;;;;;;;;;5053341;28;20017;-66
2024/03/28 04:05:33;;;;;;;55.10;22.63;;;;;;;;;;5052912;28;20035;-66
2024/03/28 04:08:20;;;;;;;61.40;24.27;;;;;;;;;;5049248;28;20028;-66
2024/03/28 04:11:06;;;;;;;54.58;21.58;;;;;;;;;;5040235;28;20505;-65
2024/03/28 04:13:51;;;;;;;55.90;22.15;;;;;;;;;;5052338;28;20111;-66
2024/03/28 04:16:37;;;;;;;67.22;22.38;;;;;;;;;;5051977;28;20482;-66
2024/03/28 04:19:23;;;;;;;58.05;23.70;;;;;;;;;;5051606;28;20384;-65
2024/03/28 04:22:08;;;;;;;52.15;21.85;;;;;;;;;;5051207;28;20031;-65
2024/03/28 04:24:55;;;;;;;54.90;20.67;;;;;;;;;;5039717;28;20097;-65
2024/03/28 04:27:41;;;;;;;60.25;21.45;;;;;;;;;;5050914;28;20029;-65
2024/03/28 04:30:31;;;;;;;53.10;21.25;;;;;;;;;;5051844;28;20024;-65
2024/03/28 04:33:17;;;;;;;55.22;24.55;;;;;;;;;;5048252;28;20430;-65
2024/03/28 04:36:03;;;;;;;60.88;22.80;;;;;;;;;;5031426;28;20479;-65
2024/03/28 04:38:48;;;;;;;55.13;23.20;;;;;;;;;;5031533;28;20030;-65
2024/03/28 04:41:34;;;;;;;55.25;22.40;;;;;;;;;;5035535;28;20029;-65
2024/03/28 04:44:20;;;;;;;55.13;21.73;;;;;;;;;;5039615;28;20059;-65
2024/03/28 04:47:07;;;;;;;53.78;22.00;;;;;;;;;;5031757;28;20033;-65
2024/03/28 04:49:52;;;;;;;59.78;24.50;;;;;;;;;;5031199;28;20071;-66
2024/03/28 04:52:38;;;;;;;58.20;22.20;;;;;;;;;;5042840;28;20510;-65
2024/03/28 04:55:23;;;;;;;54.42;21.50;;;;;;;;;;5052074;28;20379;-66
2024/03/28 04:58:09;;;;;;;61.75;24.23;;;;;;;;;;5051583;28;20013;-65
2024/03/28 05:00:55;;;;;;;56.22;22.55;;;;;;;;;;5051995;28;20104;-66
2024/03/28 05:03:40;;;;;;;53.85;22.38;;;;;;;;;;5049992;28;20486;-66
2024/03/28 05:06:26;;;;;;;51.92;23.38;;;;;;;;;;5055242;28;20098;-66
2024/03/28 05:09:13;;;;;;;57.28;22.30;;;;;;;;;;5041810;28;20112;-65
2024/03/28 05:11:59;;;;;;;53.75;23.60;;;;;;;;;;5034671;28;20491;-66
2024/03/28 05:14:44;;;;;;;59.75;25.95;;;;;;;;;;5051753;28;20402;-65
2024/03/28 05:17:30;;;;;;;49.33;22.67;;;;;;;;;;5038085;28;20444;-65
2024/03/28 05:20:16;;;;;;;61.03;22.73;;;;;;;;;;5041897;28;20056;-65
2024/03/28 05:23:02;;;;;;;58.50;22.50;;;;;;;;;;5040234;28;20052;-65
2024/03/28 05:25:48;;;;;;;48.58;21.55;;;;;;;;;;5055375;28;20040;-66
2024/03/28 05:28:36;;;;;;;55.53;22.13;;;;;;;;;;5054141;28;20061;-65
2024/03/28 05:31:22;;;;;;;53.25;22.55;;;;;;;;;;5054747;28;20139;-65
2024/03/28 05:34:08;;;;;;;59.58;22.23;;;;;;;;;;5053906;28;20029;-65
2024/03/28 05:36:53;;;;;;;48.17;21.02;;;;;;;;;;5050202;28;20025;-65
2024/03/28 05:39:39;;;;;;;57.75;22.17;;;;;;;;;;5053760;28;20017;-65
2024/03/28 05:42:25;;;;;;;47.53;20.23;;;;;;;;;;5043611;28;20062;-66
2024/03/28 05:45:12;;;;;;;46.03;21.17;;;;;;;;;;5035371;28;20487;-66
2024/03/28 05:47:58;;;;;;;53.78;22.50;;;;;;;;;;5049864;28;20035;-65
2024/03/28 05:50:43;;;;;;;57.08;23.45;;;;;;;;;;5053994;28;20029;-65
2024/03/28 05:53:29;;;;;;;55.67;23.02;;;;;;;;;;5054628;28;20021;-65
2024/03/28 05:56:15;;;;;;;52.80;20.63;;;;;;;;;;5071402;23;20143;-67
2024/03/28 05:59:01;;;;;;;47.35;20.65;;;;;;;;;;5033377;28;20047;-67
2024/03/28 06:01:46;;;;;;;53.03;20.85;;;;;;;;;;5056265;28;20406;-67
2024/03/28 06:04:32;;;;;;;49.88;21.30;;;;;;;;;;5052929;28;20028;-67
2024/03/28 06:07:17;;;;;;;54.35;22.65;;;;;;;;;;5037631;28;20029;-67
2024/03/28 06:10:03;;;;;;;60.85;22.98;;;;;;;;;;5051581;28;20406;-67
2024/03/28 06:12:49;;;;;;;54.42;22.33;;;;;;;;;;5053255;28;20453;-67
2024/03/28 06:15:34;;;;;;;50.28;20.90;;;;;;;;;;5053122;28;20047;-67
2024/03/28 06:18:21;;;;;;;58.45;23.45;;;;;;;;;;5051014;28;20036;-67
2024/03/28 06:21:07;;;;;;;53.85;21.92;;;;;;;;;;5036387;28;20537;-67
2024/03/28 06:23:53;;;;;;;61.28;23.00;;;;;;;;;;5033369;28;20405;-67
2024/03/28 06:26:38;;;;;;;55.58;22.10;;;;;;;;;;5044962;28;20047;-67
2024/03/28 06:29:24;;;;;;;62.50;23.70;;;;;;;;;;5037214;28;20029;-66
2024/03/28 06:32:13;;;;;;;59.05;23.42;;;;;;;;;;5052954;28;20382;-67
2024/03/28 06:34:59;;;;;;;55.38;23.25;;;;;;;;;;5049360;28;20528;-67
2024/03/28 06:37:45;;;;;;;59.53;21.88;;;;;;;;;;5032860;28;20421;-67
2024/03/28 06:40:30;;;;;;;66.65;22.80;;;;;;;;;;5033017;28;20021;-66
2024/03/28 06:43:16;;;;;;;62.22;24.60;;;;;;;;;;5038023;28;20028;-67
2024/03/28 06:46:03;;;;;;;68.72;24.00;;;;;;;;;;5032729;28;20057;-67
2024/03/28 06:48:48;;;;;;;62.30;23.98;;;;;;;;;;5032868;28;20442;-67
2024/03/28 06:51:34;;;;;;;60.47;22.98;;;;;;;;;;5039886;28;20036;-67
2024/03/28 06:54:20;;;;;;;63.42;23.10;;;;;;;;;;5032740;28;20029;-67
2024/03/28 06:57:06;;;;;;;54.60;21.63;;;;;;;;;;5034736;28;20021;-67
2024/03/28 06:59:51;;;;;;;60.08;23.52;;;;;;;;;;5031980;28;20017;-67
2024/03/28 07:02:37;;;;;;;55.63;23.42;;;;;;;;;;5034730;28;20026;-67
2024/03/28 07:05:23;;;;;;;62.25;23.20;;;;;;;;;;5031604;28;20069;-67
2024/03/28 07:08:09;;;;;;;61.75;25.25;;;;;;;;;;5034449;28;20032;-67
2024/03/28 07:10:55;;;;;;;59.97;22.98;;;;;;;;;;5032415;28;20018;-67
2024/03/28 07:13:41;;;;;;;61.38;23.52;;;;;;;;;;5034282;28;20188;-67
2024/03/28 07:16:27;;;;;;;72.00;23.90;;;;;;;;;;5036578;28;20067;-67
2024/03/28 07:19:13;;;;;;;56.97;23.02;;;;;;;;;;5031546;28;20105;-67
2024/03/28 07:21:58;;;;;;;67.85;25.10;;;;;;;;;;5051646;28;20033;-67
2024/03/28 07:24:44;;;;;;;61.78;22.95;;;;;;;;;;5070628;28;20020;-67
2024/03/28 07:27:31;;;;;;;68.43;23.92;;;;;;;;;;5072130;28;20055;-67
2024/03/28 07:30:17;;;;;;;69.20;22.60;;;;;;;;;;5071651;28;20021;-67
2024/03/28 07:33:03;;;;;;;66.90;23.02;;;;;;;;;;5046444;28;20512;-66
2024/03/28 07:35:49;;;;;;;57.25;24.30;;;;;;;;;;5051131;28;20051;-67
2024/03/28 07:38:34;;;;;;;61.60;22.83;;;;;;;;;;5039751;28;20044;-67
2024/03/28 07:41:20;;;;;;;83.68;29.75;;;;;;;;;;5031945;28;20022;-67
2024/03/28 07:44:06;;;;;;;99.32;36.58;;;;;;;;;;5034240;28;20029;-67
2024/03/28 07:46:51;;;;;;;71.55;30.80;;;;;;;;;;5051377;28;20517;-67
2024/03/28 07:49:37;;;;;;;70.03;29.17;;;;;;;;;;5054133;28;20509;-67
2024/03/28 07:52:23;;;;;;;62.40;25.77;;;;;;;;;;5051076;28;20028;-67
2024/03/28 07:55:08;;;;;;;63.05;26.75;;;;;;;;;;5043485;28;20025;-67
2024/03/28 07:57:54;;;;;;;66.10;27.75;;;;;;;;;;5050849;28;20021;-67
2024/03/28 08:00:40;;;;;;;68.25;28.75;;;;;;;;;;5049423;28;20025;-67
2024/03/28 08:03:26;;;;;;;51.72;21.40;;;;;;;;;;5032546;28;20538;-67
2024/03/28 08:06:11;;;;;;;53.33;19.38;;;;;;;;;;5030533;28;20026;-67
2024/03/28 08:08:57;;;;;;;45.38;19.40;;;;;;;;;;5050947;28;20028;-67
2024/03/28 08:11:43;;;;;;;55.58;21.98;;;;;;;;;;5051300;28;20090;-66
2024/03/28 08:14:29;;;;;;;43.00;17.92;;;;;;;;;;5044011;28;20495;-67
2024/03/28 08:17:16;;;;;;;48.75;17.58;;;;;;;;;;5030935;28;20044;-66
2024/03/28 08:20:10;;;;;;;58.33;26.88;;;;;;;;;;5033835;28;20028;-67
2024/03/28 08:22:59;;;;;;;41.50;17.92;;;;;;;;;;5046596;28;20021;-67
2024/03/28 08:25:45;;;;;;;41.13;15.45;;;;;;;;;;5048804;28;20053;-67
2024/03/28 08:28:30;;;;;;;39.63;15.57;;;;;;;;;;5045583;28;20450;-66
2024/03/28 08:31:16;;;;;;;45.88;15.18;;;;;;;;;;5065555;28;20025;-66
2024/03/28 08:34:02;;;;;;;43.25;17.60;;;;;;;;;;5070449;28;20029;-65
2024/03/28 08:36:48;;;;;;;42.72;15.27;;;;;;;;;;5047931;28;20117;-66
2024/03/28 08:39:33;;;;;;;38.95;13.93;;;;;;;;;;5039337;28;20079;-66
2024/03/28 08:42:19;;;;;;;41.17;15.27;;;;;;;;;;5030693;28;20026;-67
2024/03/28 08:45:08;;;;;;;38.30;15.40;;;;;;;;;;5033520;28;20060;-68
2024/03/28 08:47:56;;;;;;;43.45;14.80;;;;;;;;;;5030887;28;20100;-67
2024/03/28 08:50:41;;;;;;;40.65;14.82;;;;;;;;;;5033023;28;20517;-67
2024/03/28 08:53:30;;;;;;;43.13;15.43;;;;;;;;;;5034607;28;20029;-67
2024/03/28 08:56:16;;;;;;;40.15;14.98;;;;;;;;;;5031027;28;20029;-67
2024/03/28 08:59:03;;;;;;;43.22;16.20;;;;;;;;;;5033566;28;20025;-67
2024/03/28 09:01:49;;;;;;;39.40;15.60;;;;;;;;;;5032595;28;20036;-67
2024/03/28 09:04:35;;;;;;;39.42;15.27;;;;;;;;;;5030198;28;20116;-66
2024/03/28 09:07:20;;;;;;;42.42;16.52;;;;;;;;;;5031859;28;20017;-67
2024/03/28 09:10:07;;;;;;;42.83;15.90;;;;;;;;;;5030276;28;20029;-66
2024/03/28 09:12:53;;;;;;;36.17;15.52;;;;;;;;;;5031565;28;20083;-67
2024/03/28 09:15:38;;;;;;;35.75;13.55;;;;;;;;;;5040245;28;20029;-67
2024/03/28 09:18:25;;;;;;;39.03;14.00;;;;;;;;;;5050312;28;20048;-67
2024/03/28 09:21:11;;;;;;;36.80;15.68;;;;;;;;;;5045470;28;20059;-67
2024/03/28 09:23:57;;;;;;;36.97;13.05;;;;;;;;;;5049826;28;20075;-68
2024/03/28 09:26:42;;;;;;;34.83;13.23;;;;;;;;;;5044195;28;20482;-67
2024/03/28 09:29:28;;;;;;;33.50;13.05;;;;;;;;;;5039384;28;20478;-67
2024/03/28 09:32:14;;;;;;;38.40;15.68;;;;;;;;;;5041252;28;20021;-67
2024/03/28 09:34:59;;;;;;;36.67;14.75;;;;;;;;;;5044854;28;20020;-67
2024/03/28 09:37:45;;;;;;;40.47;16.40;;;;;;;;;;5030879;28;20079;-67
2024/03/28 09:40:37;;;;;;;37.70;19.67;;;;;;;;;;5047089;28;20393;-67
2024/03/28 09:43:23;;;;;;;74.35;32.95;;;;;;;;;;5034479;28;20494;-67
2024/03/28 09:46:13;;;;;;;90.70;41.10;;;;;;;;;;5031596;28;20047;-67
2024/03/28 09:49:01;;;;;;;82.60;39.15;;;;;;;;;;5031292;28;20033;-67
2024/03/28 09:51:51;;;;;;;57.63;27.13;;;;;;;;;;5030568;28;20052;-67
2024/03/28 09:54:44;;;;;;;57.45;28.45;;;;;;;;;;5053057;28;20032;-67
2024/03/28 09:57:29;;;;;;;43.22;23.35;;;;;;;;;;5058586;28;20375;-67
2024/03/28 10:00:15;;;;;;;44.30;19.67;;;;;;;;;;5058181;28;20028;-67
2024/03/28 10:03:17;;;;;;;31.80;16.20;;;;;;;;;;5033467;28;20028;-67
2024/03/28 10:06:02;;;;;;;30.23;14.55;;;;;;;;;;5038386;28;20025;-67
2024/03/28 10:08:48;;;;;;;43.13;22.23;;;;;;;;;;5038343;28;20061;-67
2024/03/28 10:11:39;;;;;;;40.85;24.35;;;;;;;;;;5033402;28;20022;-67
2024/03/28 10:14:32;;;;;;;46.53;26.40;;;;;;;;;;5050101;28;20031;-67
2024/03/28 10:17:18;;;;;;;39.25;17.50;;;;;;;;;;5053002;28;20116;-67
2024/03/28 10:20:07;;;;;;;27.75;12.30;;;;;;;;;;5053549;28;20099;-67
2024/03/28 10:22:53;;;;;;;31.30;14.90;;;;;;;;;;5055304;28;20021;-67
2024/03/28 10:25:39;;;;;;;35.03;16.38;;;;;;;;;;5071909;28;20081;-66
2024/03/28 10:28:30;;;;;;;46.55;19.13;;;;;;;;;;5047090;28;20516;-67
2024/03/28 10:31:23;;;;;;;22.90;11.10;;;;;;;;;;5037820;28;20107;-67
2024/03/28 10:34:16;;;;;;;21.58;9.05;;;;;;;;;;5018105;28;20517;-67
2024/03/28 10:37:05;;;;;;;58.78;22.90;;;;;;;;;;5017603;28;20075;-67
2024/03/28 10:39:51;;;;;;;20.02;9.50;;;;;;;;;;5010729;28;20088;-67
2024/03/28 10:42:41;;;;;;;18.73;8.25;;;;;;;;;;5033099;28;20040;-67
2024/03/28 10:45:30;;;;;;;19.08;11.20;;;;;;;;;;5024031;28;20379;-67
2024/03/28 10:48:17;;;;;;;16.08;7.53;;;;;;;;;;5017563;28;20589;-67
2024/03/28 10:51:18;;;;;;;17.52;6.18;;;;;;;;;;5030124;28;20029;-67
2024/03/28 10:54:30;;;;;;;12.05;5.68;;;;;;;;;;5037803;28;20021;-68
2024/03/28 10:57:17;;;;;;;12.82;4.63;;;;;;;;;;5027545;28;20041;-67
2024/03/28 11:00:03;;;;;;;10.32;3.72;;;;;;;;;;5030480;28;20582;-67
2024/03/28 11:02:49;;;;;;;10.45;4.03;;;;;;;;;;5032378;28;20117;-67
2024/03/28 11:05:35;;;;;;;4.53;2.40;;;;;;;;;;5039432;28;20052;-68
2024/03/28 11:08:21;;;;;;;5.15;3.28;;;;;;;;;;5031728;28;20022;-68
2024/03/28 11:11:08;;;;;;;4.68;3.00;;;;;;;;;;5036277;28;20519;-67
2024/03/28 11:13:54;;;;;;;4.60;3.05;;;;;;;;;;5051046;28;20025;-67
2024/03/28 11:16:39;;;;;;;6.07;3.80;;;;;;;;;;5032308;28;20501;-67
2024/03/28 11:19:25;;;;;;;4.97;2.50;;;;;;;;;;5052510;28;20491;-67
2024/03/28 11:22:12;;;;;;;3.03;2.10;;;;;;;;;;5035633;28;20170;-67
2024/03/28 11:24:58;;;;;;;3.95;2.58;;;;;;;;;;5024046;28;20116;-67
2024/03/28 11:27:43;;;;;;;2.58;1.95;;;;;;;;;;5030966;28;20029;-67
2024/03/28 11:30:29;;;;;;;2.38;1.55;;;;;;;;;;5041148;28;20466;-67
2024/03/28 11:33:15;;;;;;;1.80;1.25;;;;;;;;;;5036516;28;20060;-67
2024/03/28 11:36:02;;;;;;;3.20;1.55;;;;;;;;;;5029969;28;20023;-67
2024/03/28 11:38:47;;;;;;;1.58;1.33;;;;;;;;;;5030678;28;20021;-67
2024/03/28 11:41:33;;;;;;;1.98;1.40;;;;;;;;;;5043497;28;20116;-67
2024/03/28 11:44:22;;;;;;;1.92;1.42;;;;;;;;;;5021019;28;20036;-67
2024/03/28 11:47:09;;;;;;;1.75;1.50;;;;;;;;;;5069500;28;20043;-67
2024/03/28 11:50:05;;;;;;;1.67;1.35;;;;;;;;;;5038873;28;20567;-67
2024/03/28 11:53:00;;;;;;;2.00;1.83;;;;;;;;;;5130906;27;20911;-67
2024/03/28 11:55:47;;;;;;;5.88;5.15;;;;;;;;;;5123088;28;20092;-67
2024/03/28 11:58:33;;;;;;;3.75;3.10;;;;;;;;;;5074974;22;20045;-66
2024/03/28 12:01:18;;;;;;;3.35;2.47;;;;;;;;;;5068844;28;20096;-66
2024/03/28 12:04:04;;;;;;;2.67;2.22;;;;;;;;;;5067499;28;20020;-66
2024/03/28 12:06:50;;;;;;;2.20;2.00;;;;;;;;;;5049676;28;20028;-66
2024/03/28 12:09:37;;;;;;;2.00;1.85;;;;;;;;;;5064318;28;20083;-66
2024/03/28 12:12:23;;;;;;;2.33;1.95;;;;;;;;;;5054745;28;20033;-66
2024/03/28 12:15:08;;;;;;;2.13;1.92;;;;;;;;;;5068985;28;20055;-66
2024/03/28 12:17:57;;;;;;;1.85;1.75;;;;;;;;;;5068233;28;20495;-66
2024/03/28 12:20:43;;;;;;;2.72;2.47;;;;;;;;;;5060923;28;20024;-66
2024/03/28 12:23:29;;;;;;;3.08;1.90;;;;;;;;;;5068715;28;20029;-66
2024/03/28 12:26:18;;;;;;;1.90;1.80;;;;;;;;;;5067327;28;20466;-66
2024/03/28 12:29:03;;;;;;;2.53;1.90;;;;;;;;;;5067869;28;20521;-66
2024/03/28 12:31:49;;;;;;;2.70;1.38;;;;;;;;;;5067000;28;20433;-66
2024/03/28 12:34:35;;;;;;;1.58;1.48;;;;;;;;;;5068131;28;20027;-66
2024/03/28 12:37:22;;;;;;;1.48;1.38;;;;;;;;;;5066793;28;20028;-66
2024/03/28 12:40:13;;;;;;;1.77;1.67;;;;;;;;;;5067703;28;20032;-66
2024/03/28 12:42:59;;;;;;;1.65;1.55;;;;;;;;;;5067745;28;20031;-66
2024/03/28 12:45:45;;;;;;;1.63;1.52;;;;;;;;;;5066543;28;20043;-66
2024/03/28 12:48:32;;;;;;;3.53;1.95;;;;;;;;;;5066836;28;20530;-66
2024/03/28 12:51:18;;;;;;;1.70;1.52;;;;;;;;;;5066391;28;20116;-66
2024/03/28 12:54:03;;;;;;;1.95;1.60;;;;;;;;;;5069158;28;20031;-66
2024/03/28 12:56:51;;;;;;;1.85;1.75;;;;;;;;;;5066483;28;20027;-64
2024/03/28 12:59:37;;;;;;;1.80;1.65;;;;;;;;;;5064004;28;20490;-65
2024/03/28 13:02:23;;;;;;;2.80;1.95;;;;;;;;;;5046256;28;20439;-65
2024/03/28 13:05:13;;;;;;;1.63;1.52;;;;;;;;;;5042389;28;20120;-65
2024/03/28 13:07:58;;;;;;;2.05;1.85;;;;;;;;;;5041725;28;20107;-65
2024/03/28 13:10:44;;;;;;;3.28;2.00;;;;;;;;;;5053304;28;20021;-65
2024/03/28 13:13:30;;;;;;;2.20;2.00;;;;;;;;;;5054036;28;20104;-65
2024/03/28 13:16:17;;;;;;;2.08;1.98;;;;;;;;;;5054546;28;20029;-65
2024/03/28 13:19:02;;;;;;;1.90;1.75;;;;;;;;;;5053369;28;20029;-64
2024/03/28 13:21:48;;;;;;;2.05;1.85;;;;;;;;;;5053669;28;20036;-65
2024/03/28 13:24:35;;;;;;;1.77;1.67;;;;;;;;;;5054058;28;20025;-66
2024/03/28 13:27:20;;;;;;;1.67;1.58;;;;;;;;;;5051825;28;20112;-65
2024/03/28 13:30:08;;;;;;;1.75;1.65;;;;;;;;;;5053592;28;20103;-64
2024/03/28 13:32:53;;;;;;;3.17;1.10;;;;;;;;;;5054393;28;20474;-66
2024/03/28 13:35:39;;;;;;;1.10;1.05;;;;;;;;;;5053433;28;20627;-66
2024/03/28 13:38:25;;;;;;;3.60;1.20;;;;;;;;;;5053508;28;20219;-66
2024/03/28 13:41:10;;;;;;;6.25;1.88;;;;;;;;;;5052550;28;20063;-66
2024/03/28 13:43:56;;;;;;;2.40;2.03;;;;;;;;;;5054050;28;20079;-66
2024/03/28 13:46:42;;;;;;;2.88;2.67;;;;;;;;;;5053528;28;20025;-66
2024/03/28 13:49:30;;;;;;;3.30;1.90;;;;;;;;;;5053827;28;20047;-66
2024/03/28 13:52:16;;;;;;;2.05;1.85;;;;;;;;;;5053460;28;20520;-66
2024/03/28 13:55:02;;;;;;;2.88;2.10;;;;;;;;;;5034855;28;20029;-66
2024/03/28 13:57:48;;;;;;;5.10;2.22;;;;;;;;;;5053390;28;20083;-66
2024/03/28 14:00:34;;;;;;;2.20;1.95;;;;;;;;;;5052550;28;20087;-66
2024/03/28 14:03:19;;;;;;;2.10;1.90;;;;;;;;;;5052403;28;20100;-66
2024/03/28 14:06:05;;;;;;;2.78;2.13;;;;;;;;;;5052210;28;20032;-66
2024/03/28 14:08:51;;;;;;;2.88;2.00;;;;;;;;;;5053813;28;20017;-66
2024/03/28 14:11:36;;;;;;;3.05;2.40;;;;;;;;;;5052031;28;20025;-66
2024/03/28 14:14:22;;;;;;;5.68;2.50;;;;;;;;;;5050896;28;20033;-66
2024/03/28 14:17:08;;;;;;;3.65;2.47;;;;;;;;;;5033950;28;20107;-66
2024/03/28 14:19:54;;;;;;;4.93;2.75;;;;;;;;;;5036146;28;20029;-66
2024/03/28 14:22:39;;;;;;;2.45;2.13;;;;;;;;;;5045256;28;20029;-66
2024/03/28 14:25:25;;;;;;;3.10;2.40;;;;;;;;;;5033362;28;20103;-66
2024/03/28 14:28:10;;;;;;;2.40;2.17;;;;;;;;;;5050368;28;20025;-66
2024/03/28 14:30:56;;;;;;;3.80;2.38;;;;;;;;;;5051594;28;20025;-66
2024/03/28 14:33:43;;;;;;;3.60;2.20;;;;;;;;;;5052324;28;20104;-66
2024/03/28 14:36:29;;;;;;;2.58;2.10;;;;;;;;;;5036683;28;20035;-66
2024/03/28 14:39:14;;;;;;;4.32;2.70;;;;;;;;;;5051968;28;20482;-66
2024/03/28 14:42:00;;;;;;;4.47;1.92;;;;;;;;;;5052911;28;20359;-66
2024/03/28 14:44:46;;;;;;;3.33;2.35;;;;;;;;;;5051593;28;20036;-66
2024/03/28 14:47:32;;;;;;;2.40;2.20;;;;;;;;;;5051447;28;20032;-66
2024/03/28 14:50:18;;;;;;;2.53;2.13;;;;;;;;;;5051281;28;20020;-66
2024/03/28 14:53:04;;;;;;;2.65;2.22;;;;;;;;;;5052557;28;20096;-66
2024/03/28 14:55:54;;;;;;;4.75;2.83;;;;;;;;;;5051711;28;20488;-66
2024/03/28 14:58:39;;;;;;;3.17;2.28;;;;;;;;;;5031770;28;20406;-66
2024/03/28 15:01:25;;;;;;;5.45;2.95;;;;;;;;;;5049306;28;20020;-67
2024/03/28 15:04:10;;;;;;;3.13;2.78;;;;;;;;;;5052472;28;20052;-66
2024/03/28 15:06:56;;;;;;;4.40;3.17;;;;;;;;;;5051538;28;20107;-66
2024/03/28 15:09:42;;;;;;;5.72;3.53;;;;;;;;;;5051904;28;20021;-66
2024/03/28 15:12:27;;;;;;;4.35;3.13;;;;;;;;;;5051115;28;20498;-66
2024/03/28 15:15:13;;;;;;;3.83;2.47;;;;;;;;;;5051623;28;20403;-66
2024/03/28 15:17:59;;;;;;;5.35;3.05;;;;;;;;;;5051659;28;20021;-66
2024/03/28 15:20:44;;;;;;;6.60;3.47;;;;;;;;;;5050160;28;20111;-67
2024/03/28 15:23:30;;;;;;;4.05;2.90;;;;;;;;;;5050797;28;20025;-65
2024/03/28 15:26:16;;;;;;;5.47;3.30;;;;;;;;;;5040936;28;20182;-66
2024/03/28 15:29:01;;;;;;;4.75;2.92;;;;;;;;;;5050440;28;20031;-64
2024/03/28 15:31:47;;;;;;;5.75;3.88;;;;;;;;;;5049725;28;20036;-65
2024/03/28 15:34:32;;;;;;;4.95;3.28;;;;;;;;;;5051056;28;20462;-64
2024/03/28 15:37:18;;;;;;;6.25;4.80;;;;;;;;;;5051289;28;20490;-65
2024/03/28 15:40:05;;;;;;;4.28;3.42;;;;;;;;;;5051628;28;20514;-65
2024/03/28 15:42:50;;;;;;;5.43;3.03;;;;;;;;;;5051155;28;20099;-66
2024/03/28 15:45:36;;;;;;;4.00;3.45;;;;;;;;;;5051181;28;20028;-65
2024/03/28 15:48:22;;;;;;;8.02;3.58;;;;;;;;;;5051897;28;20024;-65
2024/03/28 15:51:08;;;;;;;5.28;3.60;;;;;;;;;;5051226;28;20105;-65
2024/03/28 15:53:54;;;;;;;6.15;3.42;;;;;;;;;;5050515;28;20498;-65
2024/03/28 15:56:40;;;;;;;5.05;3.22;;;;;;;;;;5050130;28;20441;-65
2024/03/28 15:59:26;;;;;;;5.00;3.65;;;;;;;;;;5050846;28;20480;-65
2024/03/28 16:02:12;;;;;;;5.03;2.47;;;;;;;;;;5050378;28;20402;-65
2024/03/28 16:04:57;;;;;;;4.97;3.30;;;;;;;;;;5050777;28;20132;-65
2024/03/28 16:07:43;;;;;;;6.45;3.80;;;;;;;;;;5049891;28;20044;-65
2024/03/28 16:10:29;;;;;;;13.32;4.13;;;;;;;;;;5032287;28;20053;-65
2024/03/28 16:13:14;;;;;;;10.55;4.97;;;;;;;;;;5030455;28;20034;-65
2024/03/28 16:16:00;;;;;;;6.53;4.07;;;;;;;;;;5051501;28;20056;-65
2024/03/28 16:18:47;;;;;;;12.63;5.35;;;;;;;;;;5051160;28;20123;-64
2024/03/28 16:21:33;;;;;;;18.70;4.82;;;;;;;;;;5050509;28;20052;-64
2024/03/28 16:24:19;;;;;;;12.63;4.95;;;;;;;;;;5050589;28;20033;-65